PKEEE VNLK-VNLK
Flight info
| Callsign | PKEEE |
|---|---|
| Flight time | 0h 2m |
| Altitude | 2000 |
| Route | VFR CIRCUIT PATTERN |
| Aircraft | C172/L-V/N |
Departure
| Time | 2026-01-29 09:06 |
|---|---|
| Airport | Tenzing-Hillary Airport (VNLK) |
Arrival
| Time | 2026-01-29 09:08 |
|---|---|
| Airport | Tenzing-Hillary Airport (VNLK) |
| Time | Latitude | Longitude | Altitude | Speed | Heading |
|---|---|---|---|---|---|
| 2026-01-29 08:58 | 27.68746 | 86.73197 | 9415 ft | 0 kts | 242° |
| 2026-01-29 09:01 | 27.68761 | 86.73170 | 9407 ft | 0 kts | 327° |
| 2026-01-29 09:01 | 27.68776 | 86.73161 | 9404 ft | 7 kts | 360° |
| 2026-01-29 09:02 | 27.68804 | 86.73183 | 9413 ft | 2 kts | 161° |
| 2026-01-29 09:02 | 27.68727 | 86.73038 | 9359 ft | 53 kts | 239° |
| 2026-01-29 09:03 | 27.67944 | 86.72290 | 9376 ft | 87 kts | 204° |
| 2026-01-29 09:03 | 27.66746 | 86.71909 | 9552 ft | 92 kts | 196° |
| 2026-01-29 09:04 | 27.65581 | 86.71284 | 9690 ft | 100 kts | 193° |
| 2026-01-29 09:04 | 27.65545 | 86.70283 | 9871 ft | 95 kts | 320° |
| 2026-01-29 09:04 | 27.66122 | 86.69975 | 9964 ft | 92 kts | 347° |
| 2026-01-29 09:05 | 27.67375 | 86.68928 | 10331 ft | 73 kts | 298° |
| 2026-01-29 09:06 | 27.68147 | 86.68156 | 10540 ft | 77 kts | 327° |
| 2026-01-29 09:06 | 27.69069 | 86.67754 | 10739 ft | 80 kts | 326° |
| 2026-01-29 09:07 | 27.69366 | 86.67492 | 10941 ft | 0 kts | 312° |
| 2026-01-29 09:08 | 27.68746 | 86.73197 | 9412 ft | 0 kts | 242° |
| 2026-01-29 09:09 | 27.68755 | 86.73175 | 9406 ft | 6 kts | 317° |
| 2026-01-29 09:10 | 27.68795 | 86.73179 | 9410 ft | 7 kts | 223° |
| 2026-01-29 09:10 | 27.68793 | 86.73176 | 9409 ft | 0 kts | 241° |
| 2026-01-29 09:14 | 27.68287 | 86.72337 | 9178 ft | 117 kts | 216° |
| 2026-01-29 09:14 | 27.66494 | 86.71777 | 9446 ft | 143 kts | 189° |
| 2026-01-29 09:15 | 27.64710 | 86.71210 | 9969 ft | 130 kts | 255° |
| 2026-01-29 09:15 | 27.66105 | 86.71378 | 9768 ft | 171 kts | 37° |
| 2026-01-29 09:15 | 27.66714 | 86.71814 | 10138 ft | 151 kts | 22° |
| 2026-01-29 09:16 | 27.68296 | 86.71195 | 10447 ft | 137 kts | 301° |
| 2026-01-29 09:16 | 27.68621 | 86.70255 | 10474 ft | 122 kts | 232° |
| 2026-01-29 09:17 | 27.68540 | 86.72654 | 9245 ft | 140 kts | 62° |
| 2026-01-29 09:18 | 27.68845 | 86.73241 | 9433 ft | 0 kts | 164° |
| 2026-01-29 09:18 | 27.68746 | 86.73197 | 9410 ft | 0 kts | 242° |
| 2026-01-29 09:19 | 27.68777 | 86.73158 | 9399 ft | 12 kts | 299° |
| 2026-01-29 09:19 | 27.68227 | 86.72222 | 9182 ft | 117 kts | 219° |
| 2026-01-29 09:19 | 27.67366 | 86.71902 | 9197 ft | 143 kts | 195° |
| 2026-01-29 09:20 | 27.66950 | 86.70859 | 9619 ft | 133 kts | 12° |
| 2026-01-29 09:20 | 27.68434 | 86.72463 | 9235 ft | 157 kts | 59° |
| 2026-01-29 09:21 | 27.68816 | 86.73180 | 9408 ft | 0 kts | 309° |
| 2026-01-29 09:22 | 27.68814 | 86.73178 | 9407 ft | 0 kts | 354° |
| 2026-01-29 09:22 | 27.68771 | 86.73186 | 9407 ft | 0 kts | 352° |